sensor_id;sensor_type;location;lat;lon;timestamp;P1;durP1;ratioP1;P2;durP2;ratioP2
6420;SDS011;3243;50.958;7.012;2023-08-01T00:02:20;2.13;;;1.63;;
6420;SDS011;3243;50.958;7.012;2023-08-01T00:04:46;2.40;;;2.00;;
6420;SDS011;3243;50.958;7.012;2023-08-01T00:07:13;2.17;;;1.83;;
6420;SDS011;3243;50.958;7.012;2023-08-01T00:09:40;2.30;;;1.97;;
6420;SDS011;3243;50.958;7.012;2023-08-01T00:12:07;4.63;;;1.90;;
6420;SDS011;3243;50.958;7.012;2023-08-01T00:14:35;1.90;;;1.80;;
6420;SDS011;3243;50.958;7.012;2023-08-01T00:17:02;2.83;;;1.80;;
6420;SDS011;3243;50.958;7.012;2023-08-01T00:19:29;2.10;;;1.90;;
6420;SDS011;3243;50.958;7.012;2023-08-01T00:21:56;3.33;;;1.83;;
6420;SDS011;3243;50.958;7.012;2023-08-01T00:24:23;3.50;;;1.97;;
6420;SDS011;3243;50.958;7.012;2023-08-01T00:26:50;2.23;;;1.97;;
6420;SDS011;3243;50.958;7.012;2023-08-01T00:29:21;3.97;;;2.13;;
6420;SDS011;3243;50.958;7.012;2023-08-01T00:31:48;1.67;;;1.57;;
6420;SDS011;3243;50.958;7.012;2023-08-01T00:34:15;1.90;;;1.70;;
6420;SDS011;3243;50.958;7.012;2023-08-01T00:36:42;4.00;;;2.13;;
6420;SDS011;3243;50.958;7.012;2023-08-01T00:39:09;3.00;;;1.70;;
6420;SDS011;3243;50.958;7.012;2023-08-01T00:41:36;3.30;;;2.20;;
6420;SDS011;3243;50.958;7.012;2023-08-01T00:44:03;2.73;;;2.13;;
6420;SDS011;3243;50.958;7.012;2023-08-01T00:46:31;3.53;;;2.07;;
6420;SDS011;3243;50.958;7.012;2023-08-01T00:48:58;2.70;;;1.93;;
6420;SDS011;3243;50.958;7.012;2023-08-01T00:51:26;2.40;;;2.20;;
6420;SDS011;3243;50.958;7.012;2023-08-01T00:53:55;2.30;;;2.10;;
6420;SDS011;3243;50.958;7.012;2023-08-01T00:56:22;2.20;;;2.00;;
6420;SDS011;3243;50.958;7.012;2023-08-01T00:58:50;2.20;;;1.97;;
6420;SDS011;3243;50.958;7.012;2023-08-01T01:01:17;1.90;;;1.70;;
6420;SDS011;3243;50.958;7.012;2023-08-01T01:03:44;1.77;;;1.67;;
6420;SDS011;3243;50.958;7.012;2023-08-01T01:06:14;3.50;;;1.60;;
6420;SDS011;3243;50.958;7.012;2023-08-01T01:08:48;2.50;;;1.40;;
6420;SDS011;3243;50.958;7.012;2023-08-01T01:11:16;1.50;;;1.40;;
6420;SDS011;3243;50.958;7.012;2023-08-01T01:13:43;1.50;;;1.30;;
6420;SDS011;3243;50.958;7.012;2023-08-01T01:16:10;2.50;;;1.30;;
6420;SDS011;3243;50.958;7.012;2023-08-01T01:18:37;1.50;;;1.40;;
6420;SDS011;3243;50.958;7.012;2023-08-01T01:21:04;2.80;;;1.30;;
6420;SDS011;3243;50.958;7.012;2023-08-01T01:23:31;1.40;;;1.30;;
6420;SDS011;3243;50.958;7.012;2023-08-01T01:26:00;5.13;;;2.07;;
6420;SDS011;3243;50.958;7.012;2023-08-01T01:28:28;1.50;;;1.40;;
6420;SDS011;3243;50.958;7.012;2023-08-01T01:30:57;1.20;;;1.10;;
6420;SDS011;3243;50.958;7.012;2023-08-01T01:33:24;1.83;;;1.53;;
6420;SDS011;3243;50.958;7.012;2023-08-01T01:35:51;2.43;;;1.37;;
6420;SDS011;3243;50.958;7.012;2023-08-01T01:38:18;2.03;;;1.30;;
6420;SDS011;3243;50.958;7.012;2023-08-01T01:40:45;2.43;;;1.30;;
6420;SDS011;3243;50.958;7.012;2023-08-01T01:43:12;1.57;;;1.03;;
6420;SDS011;3243;50.958;7.012;2023-08-01T01:45:39;2.00;;;0.97;;
6420;SDS011;3243;50.958;7.012;2023-08-01T01:48:06;1.30;;;1.10;;
6420;SDS011;3243;50.958;7.012;2023-08-01T01:50:33;1.23;;;0.90;;
6420;SDS011;3243;50.958;7.012;2023-08-01T01:53:00;2.73;;;1.17;;
6420;SDS011;3243;50.958;7.012;2023-08-01T01:55:27;2.03;;;1.10;;
6420;SDS011;3243;50.958;7.012;2023-08-01T01:57:54;2.33;;;1.20;;
6420;SDS011;3243;50.958;7.012;2023-08-01T02:00:21;1.23;;;1.13;;
6420;SDS011;3243;50.958;7.012;2023-08-01T02:02:48;1.40;;;1.20;;
6420;SDS011;3243;50.958;7.012;2023-08-01T02:05:16;1.40;;;1.00;;
6420;SDS011;3243;50.958;7.012;2023-08-01T02:07:42;1.87;;;1.10;;
6420;SDS011;3243;50.958;7.012;2023-08-01T02:10:09;1.00;;;1.00;;
6420;SDS011;3243;50.958;7.012;2023-08-01T02:12:36;1.17;;;0.90;;
6420;SDS011;3243;50.958;7.012;2023-08-01T02:15:04;3.30;;;0.90;;
6420;SDS011;3243;50.958;7.012;2023-08-01T02:17:32;1.33;;;0.97;;
6420;SDS011;3243;50.958;7.012;2023-08-01T02:19:58;2.10;;;1.17;;
6420;SDS011;3243;50.958;7.012;2023-08-01T02:22:25;1.10;;;1.00;;
6420;SDS011;3243;50.958;7.012;2023-08-01T02:24:53;3.70;;;1.20;;
6420;SDS011;3243;50.958;7.012;2023-08-01T02:27:20;1.33;;;1.00;;
6420;SDS011;3243;50.958;7.012;2023-08-01T02:29:47;1.17;;;1.07;;
6420;SDS011;3243;50.958;7.012;2023-08-01T02:32:16;1.23;;;1.10;;
6420;SDS011;3243;50.958;7.012;2023-08-01T02:34:43;2.00;;;1.20;;
6420;SDS011;3243;50.958;7.012;2023-08-01T02:37:10;2.30;;;1.30;;
6420;SDS011;3243;50.958;7.012;2023-08-01T02:39:37;2.30;;;1.30;;
6420;SDS011;3243;50.958;7.012;2023-08-01T02:42:04;1.20;;;1.10;;
6420;SDS011;3243;50.958;7.012;2023-08-01T02:44:31;1.30;;;1.20;;
6420;SDS011;3243;50.958;7.012;2023-08-01T02:46:58;2.33;;;1.30;;
6420;SDS011;3243;50.958;7.012;2023-08-01T02:49:25;1.93;;;1.50;;
6420;SDS011;3243;50.958;7.012;2023-08-01T02:51:52;1.60;;;1.30;;
6420;SDS011;3243;50.958;7.012;2023-08-01T02:54:19;2.17;;;1.47;;
6420;SDS011;3243;50.958;7.012;2023-08-01T02:56:46;2.63;;;1.40;;
6420;SDS011;3243;50.958;7.012;2023-08-01T02:59:13;2.20;;;1.30;;
6420;SDS011;3243;50.958;7.012;2023-08-01T03:01:40;2.00;;;1.30;;
6420;SDS011;3243;50.958;7.012;2023-08-01T03:04:07;2.10;;;1.33;;
6420;SDS011;3243;50.958;7.012;2023-08-01T03:06:34;1.30;;;1.20;;
6420;SDS011;3243;50.958;7.012;2023-08-01T03:09:01;1.80;;;1.40;;
6420;SDS011;3243;50.958;7.012;2023-08-01T03:11:28;1.40;;;1.30;;
6420;SDS011;3243;50.958;7.012;2023-08-01T03:13:55;1.83;;;1.70;;
6420;SDS011;3243;50.958;7.012;2023-08-01T03:16:22;1.50;;;1.40;;
6420;SDS011;3243;50.958;7.012;2023-08-01T03:18:49;1.90;;;1.70;;
6420;SDS011;3243;50.958;7.012;2023-08-01T03:21:16;2.13;;;1.63;;
6420;SDS011;3243;50.958;7.012;2023-08-01T03:23:43;2.67;;;1.80;;
6420;SDS011;3243;50.958;7.012;2023-08-01T03:26:10;3.20;;;1.90;;
6420;SDS011;3243;50.958;7.012;2023-08-01T03:28:37;2.27;;;2.07;;
6420;SDS011;3243;50.958;7.012;2023-08-01T03:31:04;2.13;;;1.93;;
6420;SDS011;3243;50.958;7.012;2023-08-01T03:33:32;3.30;;;2.27;;
6420;SDS011;3243;50.958;7.012;2023-08-01T03:36:00;4.00;;;2.20;;
6420;SDS011;3243;50.958;7.012;2023-08-01T03:38:26;2.13;;;2.03;;
6420;SDS011;3243;50.958;7.012;2023-08-01T03:40:54;2.47;;;2.23;;
6420;SDS011;3243;50.958;7.012;2023-08-01T03:43:20;3.30;;;2.10;;
6420;SDS011;3243;50.958;7.012;2023-08-01T03:45:50;3.77;;;2.37;;
6420;SDS011;3243;50.958;7.012;2023-08-01T03:48:17;3.33;;;2.27;;
6420;SDS011;3243;50.958;7.012;2023-08-01T03:50:44;5.20;;;2.10;;
6420;SDS011;3243;50.958;7.012;2023-08-01T03:53:11;2.70;;;2.50;;
6420;SDS011;3243;50.958;7.012;2023-08-01T03:55:38;4.37;;;2.70;;
6420;SDS011;3243;50.958;7.012;2023-08-01T03:58:05;4.57;;;2.90;;
6420;SDS011;3243;50.958;7.012;2023-08-01T04:00:32;3.40;;;3.10;;
6420;SDS011;3243;50.958;7.012;2023-08-01T04:03:00;5.90;;;3.63;;
6420;SDS011;3243;50.958;7.012;2023-08-01T04:05:28;4.93;;;4.37;;
6420;SDS011;3243;50.958;7.012;2023-08-01T04:07:55;6.43;;;4.33;;
6420;SDS011;3243;50.958;7.012;2023-08-01T04:10:22;5.03;;;3.87;;
6420;SDS011;3243;50.958;7.012;2023-08-01T04:12:49;7.83;;;5.40;;
6420;SDS011;3243;50.958;7.012;2023-08-01T04:15:16;5.97;;;5.43;;
6420;SDS011;3243;50.958;7.012;2023-08-01T04:17:43;6.17;;;5.47;;
6420;SDS011;3243;50.958;7.012;2023-08-01T04:20:10;9.27;;;6.70;;
6420;SDS011;3243;50.958;7.012;2023-08-01T04:22:38;9.90;;;7.23;;
6420;SDS011;3243;50.958;7.012;2023-08-01T04:25:06;7.10;;;6.40;;
6420;SDS011;3243;50.958;7.012;2023-08-01T04:27:33;9.10;;;6.83;;
6420;SDS011;3243;50.958;7.012;2023-08-01T04:30:00;8.90;;;7.40;;
6420;SDS011;3243;50.958;7.012;2023-08-01T04:32:27;11.00;;;7.97;;
6420;SDS011;3243;50.958;7.012;2023-08-01T04:34:54;11.63;;;7.80;;
6420;SDS011;3243;50.958;7.012;2023-08-01T04:37:22;10.90;;;7.93;;
6420;SDS011;3243;50.958;7.012;2023-08-01T04:39:49;9.67;;;7.27;;
6420;SDS011;3243;50.958;7.012;2023-08-01T04:42:16;9.63;;;7.03;;
6420;SDS011;3243;50.958;7.012;2023-08-01T04:44:44;15.37;;;7.77;;
6420;SDS011;3243;50.958;7.012;2023-08-01T04:47:13;11.20;;;7.10;;
6420;SDS011;3243;50.958;7.012;2023-08-01T04:49:40;9.67;;;7.30;;
6420;SDS011;3243;50.958;7.012;2023-08-01T04:52:07;8.63;;;5.93;;
6420;SDS011;3243;50.958;7.012;2023-08-01T04:54:34;9.33;;;6.80;;
6420;SDS011;3243;50.958;7.012;2023-08-01T04:57:01;13.90;;;8.73;;
6420;SDS011;3243;50.958;7.012;2023-08-01T04:59:28;12.53;;;8.40;;
6420;SDS011;3243;50.958;7.012;2023-08-01T05:01:55;11.23;;;7.03;;
6420;SDS011;3243;50.958;7.012;2023-08-01T05:04:22;10.03;;;6.33;;
6420;SDS011;3243;50.958;7.012;2023-08-01T05:06:49;10.40;;;6.30;;
6420;SDS011;3243;50.958;7.012;2023-08-01T05:09:16;10.00;;;6.53;;
6420;SDS011;3243;50.958;7.012;2023-08-01T05:11:43;8.87;;;6.40;;
6420;SDS011;3243;50.958;7.012;2023-08-01T05:14:10;10.70;;;6.17;;
6420;SDS011;3243;50.958;7.012;2023-08-01T05:16:37;8.70;;;6.00;;
6420;SDS011;3243;50.958;7.012;2023-08-01T05:19:04;8.00;;;5.53;;
6420;SDS011;3243;50.958;7.012;2023-08-01T05:21:31;9.53;;;5.93;;
6420;SDS011;3243;50.958;7.012;2023-08-01T05:23:59;10.90;;;6.13;;
6420;SDS011;3243;50.958;7.012;2023-08-01T05:26:26;9.53;;;5.50;;
6420;SDS011;3243;50.958;7.012;2023-08-01T05:28:53;8.87;;;5.83;;
6420;SDS011;3243;50.958;7.012;2023-08-01T05:31:19;9.33;;;5.43;;
6420;SDS011;3243;50.958;7.012;2023-08-01T05:33:46;10.87;;;5.83;;
6420;SDS011;3243;50.958;7.012;2023-08-01T05:36:14;8.27;;;5.97;;
6420;SDS011;3243;50.958;7.012;2023-08-01T05:38:40;10.87;;;6.03;;
6420;SDS011;3243;50.958;7.012;2023-08-01T05:41:07;9.37;;;5.73;;
6420;SDS011;3243;50.958;7.012;2023-08-01T05:43:34;8.57;;;6.00;;
6420;SDS011;3243;50.958;7.012;2023-08-01T05:46:01;11.17;;;6.20;;
6420;SDS011;3243;50.958;7.012;2023-08-01T05:48:28;8.40;;;5.70;;
6420;SDS011;3243;50.958;7.012;2023-08-01T05:50:55;10.13;;;4.87;;
6420;SDS011;3243;50.958;7.012;2023-08-01T05:53:22;7.40;;;5.10;;
6420;SDS011;3243;50.958;7.012;2023-08-01T05:55:49;9.00;;;5.37;;
6420;SDS011;3243;50.958;7.012;2023-08-01T05:58:16;11.43;;;5.60;;
6420;SDS011;3243;50.958;7.012;2023-08-01T06:00:44;7.30;;;4.63;;
6420;SDS011;3243;50.958;7.012;2023-08-01T06:03:10;8.33;;;4.47;;
6420;SDS011;3243;50.958;7.012;2023-08-01T06:05:38;6.77;;;4.60;;
6420;SDS011;3243;50.958;7.012;2023-08-01T06:08:06;7.50;;;4.73;;
6420;SDS011;3243;50.958;7.012;2023-08-01T06:10:37;6.93;;;4.60;;
6420;SDS011;3243;50.958;7.012;2023-08-01T06:13:03;9.67;;;5.07;;
6420;SDS011;3243;50.958;7.012;2023-08-01T06:15:30;6.87;;;4.03;;
6420;SDS011;3243;50.958;7.012;2023-08-01T06:17:57;8.00;;;4.90;;
6420;SDS011;3243;50.958;7.012;2023-08-01T06:20:24;9.93;;;4.40;;
6420;SDS011;3243;50.958;7.012;2023-08-01T06:22:51;7.70;;;4.70;;
6420;SDS011;3243;50.958;7.012;2023-08-01T06:25:18;9.70;;;4.90;;
6420;SDS011;3243;50.958;7.012;2023-08-01T06:27:45;7.20;;;4.40;;
6420;SDS011;3243;50.958;7.012;2023-08-01T06:30:12;7.37;;;4.23;;
6420;SDS011;3243;50.958;7.012;2023-08-01T06:32:39;8.13;;;3.87;;
6420;SDS011;3243;50.958;7.012;2023-08-01T06:35:06;7.87;;;4.20;;
6420;SDS011;3243;50.958;7.012;2023-08-01T06:37:33;8.67;;;4.17;;
6420;SDS011;3243;50.958;7.012;2023-08-01T06:40:00;6.03;;;4.10;;
6420;SDS011;3243;50.958;7.012;2023-08-01T06:42:28;11.03;;;4.23;;
6420;SDS011;3243;50.958;7.012;2023-08-01T06:44:54;7.07;;;4.10;;
6420;SDS011;3243;50.958;7.012;2023-08-01T06:47:23;5.83;;;4.17;;
6420;SDS011;3243;50.958;7.012;2023-08-01T06:49:50;10.90;;;4.10;;
6420;SDS011;3243;50.958;7.012;2023-08-01T06:52:17;6.27;;;4.00;;
6420;SDS011;3243;50.958;7.012;2023-08-01T06:54:44;10.75;;;4.38;;
6420;SDS011;3243;50.958;7.012;2023-08-01T06:57:11;10.40;;;4.23;;
6420;SDS011;3243;50.958;7.012;2023-08-01T06:59:38;8.63;;;4.50;;
6420;SDS011;3243;50.958;7.012;2023-08-01T07:02:05;7.20;;;4.33;;
6420;SDS011;3243;50.958;7.012;2023-08-01T07:04:33;10.93;;;4.90;;
6420;SDS011;3243;50.958;7.012;2023-08-01T07:07:00;7.90;;;4.27;;
6420;SDS011;3243;50.958;7.012;2023-08-01T07:09:27;9.23;;;4.30;;
6420;SDS011;3243;50.958;7.012;2023-08-01T07:11:55;8.80;;;5.03;;
6420;SDS011;3243;50.958;7.012;2023-08-01T07:14:21;7.40;;;4.17;;
6420;SDS011;3243;50.958;7.012;2023-08-01T07:16:49;7.87;;;4.70;;
6420;SDS011;3243;50.958;7.012;2023-08-01T07:19:15;8.07;;;4.40;;
6420;SDS011;3243;50.958;7.012;2023-08-01T07:21:42;6.75;;;4.32;;
6420;SDS011;3243;50.958;7.012;2023-08-01T07:24:11;7.23;;;4.27;;
6420;SDS011;3243;50.958;7.012;2023-08-01T07:26:40;8.63;;;4.97;;
6420;SDS011;3243;50.958;7.012;2023-08-01T07:29:07;8.97;;;4.80;;
6420;SDS011;3243;50.958;7.012;2023-08-01T07:31:35;8.33;;;4.60;;
6420;SDS011;3243;50.958;7.012;2023-08-01T07:34:02;5.47;;;3.93;;
6420;SDS011;3243;50.958;7.012;2023-08-01T07:36:29;9.07;;;4.30;;
6420;SDS011;3243;50.958;7.012;2023-08-01T07:38:57;9.30;;;4.60;;
6420;SDS011;3243;50.958;7.012;2023-08-01T07:41:24;10.27;;;5.20;;
6420;SDS011;3243;50.958;7.012;2023-08-01T07:43:51;10.77;;;4.37;;
6420;SDS011;3243;50.958;7.012;2023-08-01T07:46:18;8.60;;;4.77;;
6420;SDS011;3243;50.958;7.012;2023-08-01T07:48:45;9.00;;;4.23;;
6420;SDS011;3243;50.958;7.012;2023-08-01T07:51:12;6.37;;;4.43;;
6420;SDS011;3243;50.958;7.012;2023-08-01T07:53:39;5.25;;;4.10;;
6420;SDS011;3243;50.958;7.012;2023-08-01T07:56:06;9.07;;;4.60;;
6420;SDS011;3243;50.958;7.012;2023-08-01T07:58:34;6.20;;;4.05;;
6420;SDS011;3243;50.958;7.012;2023-08-01T08:01:02;5.70;;;4.00;;
6420;SDS011;3243;50.958;7.012;2023-08-01T08:03:30;7.23;;;4.40;;
6420;SDS011;3243;50.958;7.012;2023-08-01T08:05:58;7.63;;;4.23;;
6420;SDS011;3243;50.958;7.012;2023-08-01T08:08:25;10.13;;;4.70;;
6420;SDS011;3243;50.958;7.012;2023-08-01T08:10:53;8.00;;;4.23;;
6420;SDS011;3243;50.958;7.012;2023-08-01T08:13:20;7.00;;;4.10;;
6420;SDS011;3243;50.958;7.012;2023-08-01T08:15:47;10.83;;;4.20;;
6420;SDS011;3243;50.958;7.012;2023-08-01T08:18:14;10.38;;;4.93;;
6420;SDS011;3243;50.958;7.012;2023-08-01T08:20:45;9.75;;;4.00;;
6420;SDS011;3243;50.958;7.012;2023-08-01T08:23:12;8.20;;;4.00;;
6420;SDS011;3243;50.958;7.012;2023-08-01T08:25:40;9.40;;;4.07;;
6420;SDS011;3243;50.958;7.012;2023-08-01T08:28:13;12.63;;;4.53;;
6420;SDS011;3243;50.958;7.012;2023-08-01T08:30:40;8.30;;;4.38;;
6420;SDS011;3243;50.958;7.012;2023-08-01T08:33:08;9.50;;;4.22;;
6420;SDS011;3243;50.958;7.012;2023-08-01T08:35:38;8.45;;;4.10;;
6420;SDS011;3243;50.958;7.012;2023-08-01T08:38:05;9.60;;;4.47;;
6420;SDS011;3243;50.958;7.012;2023-08-01T08:40:32;9.45;;;4.32;;
6420;SDS011;3243;50.958;7.012;2023-08-01T08:43:02;6.95;;;4.03;;
6420;SDS011;3243;50.958;7.012;2023-08-01T08:45:31;8.57;;;4.07;;
6420;SDS011;3243;50.958;7.012;2023-08-01T08:48:01;6.15;;;3.90;;
6420;SDS011;3243;50.958;7.012;2023-08-01T08:50:33;6.68;;;4.72;;
6420;SDS011;3243;50.958;7.012;2023-08-01T08:53:02;6.65;;;4.30;;
6420;SDS011;3243;50.958;7.012;2023-08-01T08:55:29;7.55;;;4.25;;
6420;SDS011;3243;50.958;7.012;2023-08-01T08:57:58;8.80;;;3.75;;
6420;SDS011;3243;50.958;7.012;2023-08-01T09:00:26;5.93;;;4.10;;
6420;SDS011;3243;50.958;7.012;2023-08-01T09:02:53;8.23;;;4.07;;
6420;SDS011;3243;50.958;7.012;2023-08-01T09:05:21;5.63;;;4.22;;
6420;SDS011;3243;50.958;7.012;2023-08-01T09:07:56;8.75;;;4.05;;
6420;SDS011;3243;50.958;7.012;2023-08-01T09:10:25;8.43;;;3.80;;
6420;SDS011;3243;50.958;7.012;2023-08-01T09:12:52;9.63;;;3.70;;
6420;SDS011;3243;50.958;7.012;2023-08-01T09:15:19;7.30;;;3.50;;
6420;SDS011;3243;50.958;7.012;2023-08-01T09:17:49;6.70;;;3.85;;
6420;SDS011;3243;50.958;7.012;2023-08-01T09:20:17;7.38;;;3.50;;
6420;SDS011;3243;50.958;7.012;2023-08-01T09:22:44;6.78;;;3.55;;
6420;SDS011;3243;50.958;7.012;2023-08-01T09:25:12;6.50;;;3.55;;
6420;SDS011;3243;50.958;7.012;2023-08-01T09:27:39;4.15;;;3.10;;
6420;SDS011;3243;50.958;7.012;2023-08-01T09:32:39;8.43;;;3.53;;
6420;SDS011;3243;50.958;7.012;2023-08-01T09:35:06;10.38;;;3.60;;
6420;SDS011;3243;50.958;7.012;2023-08-01T09:37:40;7.57;;;4.03;;
6420;SDS011;3243;50.958;7.012;2023-08-01T09:40:11;7.85;;;3.28;;
6420;SDS011;3243;50.958;7.012;2023-08-01T09:42:38;12.63;;;4.50;;
6420;SDS011;3243;50.958;7.012;2023-08-01T09:45:11;8.85;;;3.95;;
6420;SDS011;3243;50.958;7.012;2023-08-01T09:47:42;12.18;;;3.60;;
6420;SDS011;3243;50.958;7.012;2023-08-01T09:50:19;7.53;;;3.60;;
6420;SDS011;3243;50.958;7.012;2023-08-01T09:52:47;6.85;;;3.30;;
6420;SDS011;3243;50.958;7.012;2023-08-01T09:55:25;12.52;;;3.47;;
6420;SDS011;3243;50.958;7.012;2023-08-01T09:57:58;17.98;;;3.92;;
6420;SDS011;3243;50.958;7.012;2023-08-01T10:00:29;11.40;;;3.70;;
6420;SDS011;3243;50.958;7.012;2023-08-01T10:02:57;11.25;;;3.70;;
6420;SDS011;3243;50.958;7.012;2023-08-01T10:05:30;12.35;;;4.10;;
6420;SDS011;3243;50.958;7.012;2023-08-01T10:07:58;5.20;;;3.40;;
6420;SDS011;3243;50.958;7.012;2023-08-01T10:10:27;4.78;;;2.70;;
6420;SDS011;3243;50.958;7.012;2023-08-01T10:12:56;8.02;;;3.20;;
6420;SDS011;3243;50.958;7.012;2023-08-01T10:15:24;9.45;;;3.38;;
6420;SDS011;3243;50.958;7.012;2023-08-01T10:17:52;10.88;;;3.97;;
6420;SDS011;3243;50.958;7.012;2023-08-01T10:20:20;6.30;;;3.55;;
6420;SDS011;3243;50.958;7.012;2023-08-01T10:22:51;6.90;;;3.13;;
6420;SDS011;3243;50.958;7.012;2023-08-01T10:25:18;8.15;;;3.33;;
6420;SDS011;3243;50.958;7.012;2023-08-01T10:27:57;6.28;;;3.03;;
6420;SDS011;3243;50.958;7.012;2023-08-01T10:30:26;6.65;;;3.50;;
6420;SDS011;3243;50.958;7.012;2023-08-01T10:32:56;5.72;;;3.28;;
6420;SDS011;3243;50.958;7.012;2023-08-01T10:35:43;4.97;;;3.00;;
6420;SDS011;3243;50.958;7.012;2023-08-01T10:38:10;4.78;;;3.03;;
6420;SDS011;3243;50.958;7.012;2023-08-01T10:40:39;9.52;;;3.38;;
6420;SDS011;3243;50.958;7.012;2023-08-01T10:43:25;7.43;;;3.28;;
6420;SDS011;3243;50.958;7.012;2023-08-01T10:46:04;4.93;;;3.03;;
6420;SDS011;3243;50.958;7.012;2023-08-01T10:48:31;6.32;;;3.13;;
6420;SDS011;3243;50.958;7.012;2023-08-01T10:50:58;5.22;;;2.95;;
6420;SDS011;3243;50.958;7.012;2023-08-01T10:53:25;6.53;;;3.25;;
6420;SDS011;3243;50.958;7.012;2023-08-01T10:55:51;5.60;;;2.92;;
6420;SDS011;3243;50.958;7.012;2023-08-01T10:58:19;3.83;;;2.90;;
6420;SDS011;3243;50.958;7.012;2023-08-01T11:00:45;5.15;;;3.20;;
6420;SDS011;3243;50.958;7.012;2023-08-01T11:03:33;7.05;;;2.83;;
6420;SDS011;3243;50.958;7.012;2023-08-01T11:06:03;5.80;;;3.03;;
6420;SDS011;3243;50.958;7.012;2023-08-01T11:08:37;4.07;;;2.50;;
6420;SDS011;3243;50.958;7.012;2023-08-01T11:11:06;4.63;;;2.50;;
6420;SDS011;3243;50.958;7.012;2023-08-01T11:13:39;4.55;;;2.70;;
6420;SDS011;3243;50.958;7.012;2023-08-01T11:16:06;4.75;;;2.83;;
6420;SDS011;3243;50.958;7.012;2023-08-01T11:18:43;4.88;;;2.35;;
6420;SDS011;3243;50.958;7.012;2023-08-01T11:21:10;4.78;;;2.47;;
6420;SDS011;3243;50.958;7.012;2023-08-01T11:23:37;5.20;;;2.60;;
6420;SDS011;3243;50.958;7.012;2023-08-01T11:26:07;5.13;;;2.67;;
6420;SDS011;3243;50.958;7.012;2023-08-01T11:28:35;7.55;;;2.80;;
6420;SDS011;3243;50.958;7.012;2023-08-01T11:31:11;4.63;;;2.80;;
6420;SDS011;3243;50.958;7.012;2023-08-01T11:33:39;5.82;;;2.42;;
6420;SDS011;3243;50.958;7.012;2023-08-01T11:36:06;8.40;;;2.55;;
6420;SDS011;3243;50.958;7.012;2023-08-01T11:38:35;3.50;;;2.33;;
6420;SDS011;3243;50.958;7.012;2023-08-01T11:41:03;7.68;;;2.65;;
6420;SDS011;3243;50.958;7.012;2023-08-01T11:43:40;7.72;;;2.90;;
6420;SDS011;3243;50.958;7.012;2023-08-01T11:46:07;14.23;;;3.20;;
6420;SDS011;3243;50.958;7.012;2023-08-01T11:48:35;7.15;;;2.95;;
6420;SDS011;3243;50.958;7.012;2023-08-01T11:51:02;6.38;;;2.97;;
6420;SDS011;3243;50.958;7.012;2023-08-01T11:53:30;8.95;;;2.78;;
6420;SDS011;3243;50.958;7.012;2023-08-01T11:56:04;10.10;;;3.45;;
6420;SDS011;3243;50.958;7.012;2023-08-01T11:58:33;6.65;;;3.03;;
6420;SDS011;3243;50.958;7.012;2023-08-01T12:01:08;4.95;;;2.22;;
6420;SDS011;3243;50.958;7.012;2023-08-01T12:03:43;4.68;;;2.55;;
6420;SDS011;3243;50.958;7.012;2023-08-01T12:06:15;6.28;;;2.80;;
6420;SDS011;3243;50.958;7.012;2023-08-01T12:08:44;3.92;;;2.58;;
6420;SDS011;3243;50.958;7.012;2023-08-01T12:14:00;4.68;;;2.33;;
6420;SDS011;3243;50.958;7.012;2023-08-01T12:16:30;6.82;;;2.10;;
6420;SDS011;3243;50.958;7.012;2023-08-01T12:18:57;9.68;;;2.67;;
6420;SDS011;3243;50.958;7.012;2023-08-01T12:21:27;4.43;;;2.40;;
6420;SDS011;3243;50.958;7.012;2023-08-01T12:23:54;6.03;;;2.53;;
6420;SDS011;3243;50.958;7.012;2023-08-01T12:26:21;3.85;;;2.40;;
6420;SDS011;3243;50.958;7.012;2023-08-01T12:28:49;4.20;;;2.33;;
6420;SDS011;3243;50.958;7.012;2023-08-01T12:31:16;4.15;;;2.33;;
6420;SDS011;3243;50.958;7.012;2023-08-01T12:33:45;4.50;;;2.33;;
6420;SDS011;3243;50.958;7.012;2023-08-01T12:36:13;5.53;;;2.40;;
6420;SDS011;3243;50.958;7.012;2023-08-01T12:38:40;10.05;;;3.08;;
6420;SDS011;3243;50.958;7.012;2023-08-01T12:41:07;7.47;;;2.45;;
6420;SDS011;3243;50.958;7.012;2023-08-01T12:43:34;9.45;;;2.80;;
6420;SDS011;3243;50.958;7.012;2023-08-01T12:46:02;6.88;;;2.58;;
6420;SDS011;3243;50.958;7.012;2023-08-01T12:48:29;7.68;;;2.72;;
6420;SDS011;3243;50.958;7.012;2023-08-01T12:50:56;4.85;;;2.50;;
6420;SDS011;3243;50.958;7.012;2023-08-01T12:53:23;14.98;;;3.17;;
6420;SDS011;3243;50.958;7.012;2023-08-01T12:55:50;6.20;;;2.90;;
6420;SDS011;3243;50.958;7.012;2023-08-01T12:58:18;8.57;;;3.67;;
6420;SDS011;3243;50.958;7.012;2023-08-01T13:00:45;6.88;;;3.45;;
6420;SDS011;3243;50.958;7.012;2023-08-01T13:03:13;6.15;;;2.88;;
6420;SDS011;3243;50.958;7.012;2023-08-01T13:05:40;5.95;;;3.30;;
6420;SDS011;3243;50.958;7.012;2023-08-01T13:08:08;5.15;;;3.10;;
6420;SDS011;3243;50.958;7.012;2023-08-01T13:10:36;6.40;;;3.30;;
6420;SDS011;3243;50.958;7.012;2023-08-01T13:13:04;5.53;;;2.95;;
6420;SDS011;3243;50.958;7.012;2023-08-01T13:15:31;5.60;;;2.97;;
6420;SDS011;3243;50.958;7.012;2023-08-01T13:17:58;3.95;;;2.70;;
6420;SDS011;3243;50.958;7.012;2023-08-01T13:20:25;5.93;;;3.25;;
6420;SDS011;3243;50.958;7.012;2023-08-01T13:22:55;5.22;;;3.17;;
6420;SDS011;3243;50.958;7.012;2023-08-01T13:25:22;4.65;;;3.00;;
6420;SDS011;3243;50.958;7.012;2023-08-01T13:27:49;8.60;;;3.17;;
6420;SDS011;3243;50.958;7.012;2023-08-01T13:30:16;5.88;;;2.90;;
6420;SDS011;3243;50.958;7.012;2023-08-01T13:32:46;6.53;;;4.65;;
6420;SDS011;3243;50.958;7.012;2023-08-01T13:35:13;4.63;;;2.53;;
6420;SDS011;3243;50.958;7.012;2023-08-01T13:37:41;4.65;;;3.28;;
6420;SDS011;3243;50.958;7.012;2023-08-01T13:40:08;4.93;;;2.90;;
6420;SDS011;3243;50.958;7.012;2023-08-01T13:42:38;6.13;;;3.05;;
6420;SDS011;3243;50.958;7.012;2023-08-01T13:45:05;6.70;;;3.35;;
6420;SDS011;3243;50.958;7.012;2023-08-01T13:47:33;4.30;;;2.92;;
6420;SDS011;3243;50.958;7.012;2023-08-01T13:50:00;6.85;;;3.70;;
6420;SDS011;3243;50.958;7.012;2023-08-01T13:52:27;5.03;;;2.60;;
6420;SDS011;3243;50.958;7.012;2023-08-01T13:54:54;7.22;;;3.53;;
6420;SDS011;3243;50.958;7.012;2023-08-01T13:57:21;8.20;;;3.92;;
6420;SDS011;3243;50.958;7.012;2023-08-01T13:59:50;6.07;;;3.50;;
6420;SDS011;3243;50.958;7.012;2023-08-01T14:02:35;6.18;;;3.90;;
6420;SDS011;3243;50.958;7.012;2023-08-01T14:05:02;5.55;;;3.70;;
6420;SDS011;3243;50.958;7.012;2023-08-01T14:07:29;4.68;;;3.10;;
6420;SDS011;3243;50.958;7.012;2023-08-01T14:09:56;4.72;;;2.92;;
6420;SDS011;3243;50.958;7.012;2023-08-01T14:12:23;4.50;;;2.47;;
6420;SDS011;3243;50.958;7.012;2023-08-01T14:14:50;6.35;;;2.83;;
6420;SDS011;3243;50.958;7.012;2023-08-01T14:17:17;4.40;;;2.80;;
6420;SDS011;3243;50.958;7.012;2023-08-01T14:19:44;4.97;;;3.22;;
6420;SDS011;3243;50.958;7.012;2023-08-01T14:22:11;5.43;;;2.80;;
6420;SDS011;3243;50.958;7.012;2023-08-01T14:24:38;7.22;;;3.40;;
6420;SDS011;3243;50.958;7.012;2023-08-01T14:27:05;4.05;;;2.70;;
6420;SDS011;3243;50.958;7.012;2023-08-01T14:29:32;6.05;;;3.38;;
6420;SDS011;3243;50.958;7.012;2023-08-01T14:31:59;5.07;;;2.90;;
6420;SDS011;3243;50.958;7.012;2023-08-01T14:34:26;6.75;;;3.90;;
6420;SDS011;3243;50.958;7.012;2023-08-01T14:36:53;4.43;;;3.05;;
6420;SDS011;3243;50.958;7.012;2023-08-01T14:39:20;5.35;;;2.88;;
6420;SDS011;3243;50.958;7.012;2023-08-01T14:41:49;5.07;;;2.80;;
6420;SDS011;3243;50.958;7.012;2023-08-01T14:44:19;4.72;;;2.80;;
6420;SDS011;3243;50.958;7.012;2023-08-01T14:46:46;4.45;;;2.90;;
6420;SDS011;3243;50.958;7.012;2023-08-01T14:49:13;5.13;;;2.55;;
6420;SDS011;3243;50.958;7.012;2023-08-01T14:51:40;5.47;;;3.00;;
6420;SDS011;3243;50.958;7.012;2023-08-01T14:54:08;6.35;;;3.00;;
6420;SDS011;3243;50.958;7.012;2023-08-01T14:56:35;3.92;;;2.70;;
6420;SDS011;3243;50.958;7.012;2023-08-01T14:59:02;4.88;;;2.88;;
6420;SDS011;3243;50.958;7.012;2023-08-01T15:01:29;6.38;;;3.03;;
6420;SDS011;3243;50.958;7.012;2023-08-01T15:03:56;3.00;;;2.33;;
6420;SDS011;3243;50.958;7.012;2023-08-01T15:06:23;6.15;;;2.53;;
6420;SDS011;3243;50.958;7.012;2023-08-01T15:08:52;5.38;;;2.78;;
6420;SDS011;3243;50.958;7.012;2023-08-01T15:11:20;4.68;;;2.63;;
6420;SDS011;3243;50.958;7.012;2023-08-01T15:13:47;5.70;;;2.47;;
6420;SDS011;3243;50.958;7.012;2023-08-01T15:16:14;3.53;;;2.55;;
6420;SDS011;3243;50.958;7.012;2023-08-01T15:18:41;5.78;;;2.22;;
6420;SDS011;3243;50.958;7.012;2023-08-01T15:21:08;3.95;;;2.50;;
6420;SDS011;3243;50.958;7.012;2023-08-01T15:23:35;124.47;;;49.33;;